Time;durP1;ratioP1;P1;durP2;ratioP2;P2;SDS_P1;SDS_P2;PMS_P1;PMS_P2;Temp;Humidity;BMP_temperature;BMP_pressure;BME280_temperature;BME280_humidity;BME280_pressure;Samples;Min_cycle;Max_cycle;Signal;HPM_P1;HPM_P2
2022/03/12 00:01:45;;;;;;;;;;;14.40;55.20;;;;;;5269777;28;19920;-29
2022/03/12 00:04:23;;;;;;;;;;;14.40;55.20;;;;;;5269998;28;19944;-29
2022/03/12 00:06:54;;;;;;;;;;;14.40;55.30;;;;;;5269467;28;20277;-30
2022/03/12 00:09:26;;;;;;;;;;;14.40;55.20;;;;;;5269615;28;19920;-31
2022/03/12 00:12:00;;;;;;;;;;;14.40;55.00;;;;;;5269492;28;19933;-29
2022/03/12 00:14:33;;;;;;;;;;;14.40;55.30;;;;;;5269692;28;19920;-29
2022/03/12 00:17:07;;;;;;;;;;;14.40;55.50;;;;;;5252368;28;19962;-29
2022/03/12 00:19:39;;;;;;;;;;;14.30;55.20;;;;;;5269734;28;19920;-30
2022/03/12 00:22:13;;;;;;;;;;;14.30;55.20;;;;;;5234853;28;19927;-29
2022/03/12 00:24:48;;;;;;;;;;;14.30;55.30;;;;;;5269609;28;20264;-32
2022/03/12 00:27:19;;;;;;;;;;;14.40;55.50;;;;;;5251680;28;19920;-32
2022/03/12 00:29:51;;;;;;;;;;;14.30;55.60;;;;;;5269392;28;19920;-29
2022/03/12 00:32:22;;;;;;;;;;;14.30;55.80;;;;;;5269625;28;19927;-28
2022/03/12 00:34:53;;;;;;;;;;;14.30;55.90;;;;;;5269327;28;20289;-29
2022/03/12 00:37:24;;;;;;;;;;;14.30;55.90;;;;;;5269478;28;19920;-29
2022/03/12 00:39:56;;;;;;;;;;;14.30;55.90;;;;;;5270032;28;19959;-29
2022/03/12 00:42:26;;;;;;;;;;;14.20;55.90;;;;;;5273193;28;20065;-29
2022/03/12 00:44:58;;;;;;;;;;;14.30;55.90;;;;;;5272828;28;19927;-29
2022/03/12 00:47:29;;;;;;;;;;;14.20;56.00;;;;;;5255220;28;19982;-29
2022/03/12 00:50:04;;;;;;;;;;;14.20;56.00;;;;;;5273060;28;20350;-29
2022/03/12 00:52:35;;;;;;;;;;;14.20;56.10;;;;;;5272724;28;19920;-29
2022/03/12 00:55:06;;;;;;;;;;;14.20;56.10;;;;;;5272895;28;20383;-29
2022/03/12 00:57:37;;;;;;;;;;;14.20;56.20;;;;;;5272816;28;20357;-31
2022/03/12 01:00:19;;;;;;;;;;;14.20;56.30;;;;;;5272726;28;19924;-29
2022/03/12 01:02:50;;;;;;;;;;;14.20;56.40;;;;;;5273120;28;19920;-28
2022/03/12 01:05:22;;;;;;;;;;;14.20;56.30;;;;;;5272427;28;19959;-31
2022/03/12 01:07:52;;;;;;;;;;;14.10;56.50;;;;;;5237164;28;19924;-29
2022/03/12 01:10:23;;;;;;;;;;;14.10;56.70;;;;;;5272822;28;19928;-29
2022/03/12 01:12:54;;;;;;;;;;;14.10;56.90;;;;;;5272710;28;19981;-30
2022/03/12 01:15:26;;;;;;;;;;;14.10;56.80;;;;;;5272557;28;19966;-29
2022/03/12 01:17:57;;;;;;;;;;;14.10;56.90;;;;;;5272439;28;19960;-29
2022/03/12 01:20:28;;;;;;;;;;;14.10;57.00;;;;;;5272298;28;19920;-29
2022/03/12 01:23:00;;;;;;;;;;;14.10;57.10;;;;;;5254395;28;19963;-29
2022/03/12 01:25:37;;;;;;;;;;;14.10;57.10;;;;;;5272302;28;20455;-31
2022/03/12 01:28:09;;;;;;;;;;;14.10;57.20;;;;;;5272255;28;20026;-31
2022/03/12 01:30:43;;;;;;;;;;;14.10;57.00;;;;;;5272271;28;19943;-28
2022/03/12 01:33:13;;;;;;;;;;;14.00;57.20;;;;;;5272036;28;20014;-29
2022/03/12 01:35:44;;;;;;;;;;;14.10;57.10;;;;;;5271789;28;19981;-29
2022/03/12 01:38:15;;;;;;;;;;;14.00;57.10;;;;;;5272292;28;20330;-32
2022/03/12 01:40:46;;;;;;;;;;;14.00;56.90;;;;;;5271988;28;19955;-29
2022/03/12 01:43:17;;;;;;;;;;;14.00;56.70;;;;;;5254307;28;19959;-28
2022/03/12 01:45:48;;;;;;;;;;;14.00;56.70;;;;;;5271776;28;19927;-28
2022/03/12 01:48:19;;;;;;;;;;;14.00;56.60;;;;;;5272007;28;20300;-29
2022/03/12 01:50:50;;;;;;;;;;;14.00;56.60;;;;;;5271195;28;19966;-29
2022/03/12 01:53:21;;;;;;;;;;;14.00;56.60;;;;;;5271448;28;19955;-30
2022/03/12 01:55:53;;;;;;;;;;;14.00;56.70;;;;;;5254260;28;19919;-31
2022/03/12 01:58:24;;;;;;;;;;;14.00;56.60;;;;;;5271945;28;19927;-29
2022/03/12 02:00:58;;;;;;;;;;;14.00;56.60;;;;;;5271899;28;19927;-29
2022/03/12 02:03:29;;;;;;;;;;;14.00;56.50;;;;;;5271506;28;19920;-29
2022/03/12 02:06:00;;;;;;;;;;;14.00;56.60;;;;;;5271495;28;19920;-33
2022/03/12 02:08:31;;;;;;;;;;;13.90;56.40;;;;;;5271248;28;19927;-31
2022/03/12 02:11:02;;;;;;;;;;;14.00;56.60;;;;;;5271094;28;20356;-32
2022/03/12 02:13:34;;;;;;;;;;;13.90;56.60;;;;;;5253273;28;19948;-32
2022/03/12 02:16:07;;;;;;;;;;;13.90;56.50;;;;;;5271336;28;19924;-31
2022/03/12 02:18:38;;;;;;;;;;;13.90;56.40;;;;;;5253409;28;20257;-29
2022/03/12 02:21:09;;;;;;;;;;;13.90;56.30;;;;;;5235900;28;19955;-30
2022/03/12 02:23:47;;;;;;;;;;;13.90;56.40;;;;;;5270948;28;20020;-32
2022/03/12 02:26:18;;;;;;;;;;;13.90;56.40;;;;;;5271010;28;19981;-30
2022/03/12 02:28:49;;;;;;;;;;;13.90;56.50;;;;;;5270888;28;19919;-29
2022/03/12 02:31:21;;;;;;;;;;;13.90;56.50;;;;;;5270946;28;19920;-29
2022/03/12 02:33:53;;;;;;;;;;;13.90;56.60;;;;;;5253048;28;19920;-29
2022/03/12 02:36:26;;;;;;;;;;;13.80;56.60;;;;;;5253013;28;19924;-29
2022/03/12 02:39:00;;;;;;;;;;;13.90;56.70;;;;;;5270798;28;19993;-29
2022/03/12 02:41:31;;;;;;;;;;;13.80;56.60;;;;;;5270846;28;20353;-29
2022/03/12 02:44:03;;;;;;;;;;;13.90;56.70;;;;;;5270669;28;19977;-29
2022/03/12 02:46:36;;;;;;;;;;;13.80;56.50;;;;;;5270595;28;19924;-29
2022/03/12 02:49:06;;;;;;;;;;;13.80;56.40;;;;;;5270266;28;19927;-32
2022/03/12 02:51:40;;;;;;;;;;;13.80;56.60;;;;;;5270477;28;19920;-29
2022/03/12 02:54:11;;;;;;;;;;;13.80;56.40;;;;;;5270521;28;19919;-29
2022/03/12 02:56:42;;;;;;;;;;;13.80;56.40;;;;;;5252569;28;19920;-29
2022/03/12 02:59:13;;;;;;;;;;;13.80;56.40;;;;;;5270548;28;20340;-29
2022/03/12 03:01:44;;;;;;;;;;;13.80;56.50;;;;;;5270232;28;19919;-29
2022/03/12 03:04:18;;;;;;;;;;;13.80;56.40;;;;;;5269694;28;19920;-31
2022/03/12 03:06:49;;;;;;;;;;;13.80;56.40;;;;;;5270235;28;19927;-29
2022/03/12 03:09:20;;;;;;;;;;;13.80;56.40;;;;;;5270276;28;19920;-29
2022/03/12 03:11:52;;;;;;;;;;;13.80;56.20;;;;;;5270652;28;19943;-32
2022/03/12 03:14:29;;;;;;;;;;;13.80;56.10;;;;;;5235825;28;19920;-30
2022/03/12 03:17:01;;;;;;;;;;;13.80;56.10;;;;;;5270159;28;20327;-30
2022/03/12 03:19:34;;;;;;;;;;;13.80;56.10;;;;;;5270143;28;20365;-32
2022/03/12 03:22:05;;;;;;;;;;;13.80;56.20;;;;;;5270694;28;20276;-29
2022/03/12 03:24:36;;;;;;;;;;;13.80;56.20;;;;;;5251982;28;19920;-30
2022/03/12 03:27:07;;;;;;;;;;;13.80;56.00;;;;;;5252115;28;19927;-29
2022/03/12 03:29:38;;;;;;;;;;;13.80;56.00;;;;;;5270009;28;20010;-29
2022/03/12 03:32:09;;;;;;;;;;;13.80;56.00;;;;;;5270168;28;20372;-33
2022/03/12 03:34:40;;;;;;;;;;;13.80;56.10;;;;;;5269889;28;19920;-29
2022/03/12 03:37:11;;;;;;;;;;;13.70;56.00;;;;;;5269785;28;20369;-29
2022/03/12 03:39:42;;;;;;;;;;;13.70;56.10;;;;;;5252064;28;19949;-30
2022/03/12 03:42:18;;;;;;;;;;;13.70;56.10;;;;;;5269930;28;19931;-29
2022/03/12 03:44:49;;;;;;;;;;;13.80;55.90;;;;;;5270487;28;19927;-28
2022/03/12 03:47:20;;;;;;;;;;;13.70;56.20;;;;;;5269771;28;19920;-32
2022/03/12 03:49:51;;;;;;;;;;;13.70;56.10;;;;;;5251884;28;19966;-31
2022/03/12 03:52:23;;;;;;;;;;;13.70;56.10;;;;;;5269650;28;19920;-29
2022/03/12 03:54:54;;;;;;;;;;;13.70;56.10;;;;;;5270340;28;20280;-28
2022/03/12 03:57:25;;;;;;;;;;;13.70;56.80;;;;;;5269515;28;19920;-30
2022/03/12 03:59:56;;;;;;;;;;;13.70;56.10;;;;;;5269769;28;20361;-31
2022/03/12 04:02:27;;;;;;;;;;;13.70;55.90;;;;;;5269710;28;19927;-28
2022/03/12 04:04:59;;;;;;;;;;;13.70;56.00;;;;;;5269267;28;19920;-29
2022/03/12 04:07:30;;;;;;;;;;;13.70;56.20;;;;;;5269717;28;19973;-29
2022/03/12 04:10:01;;;;;;;;;;;13.70;56.20;;;;;;5269731;28;19942;-28
2022/03/12 04:12:32;;;;;;;;;;;13.70;56.00;;;;;;5269726;28;19919;-29
2022/03/12 04:15:03;;;;;;;;;;;13.70;56.00;;;;;;5272126;28;19939;-29
2022/03/12 04:17:34;;;;;;;;;;;13.70;56.00;;;;;;5273399;28;19959;-28
2022/03/12 04:20:05;;;;;;;;;;;13.70;56.00;;;;;;5273416;28;19955;-28
2022/03/12 04:22:38;;;;;;;;;;;13.70;55.90;;;;;;5273413;28;20289;-29
2022/03/12 04:25:10;;;;;;;;;;;13.70;56.10;;;;;;5273364;28;19927;-29
2022/03/12 04:27:44;;;;;;;;;;;13.70;56.00;;;;;;5273548;28;19920;-29
2022/03/12 04:30:18;;;;;;;;;;;13.70;56.10;;;;;;5254919;28;19973;-32
2022/03/12 04:32:49;;;;;;;;;;;13.70;56.00;;;;;;5273810;28;20293;-32
2022/03/12 04:35:20;;;;;;;;;;;13.70;55.90;;;;;;5273352;28;19979;-29
2022/03/12 04:37:52;;;;;;;;;;;13.70;56.50;;;;;;5273305;28;19920;-32
2022/03/12 04:40:25;;;;;;;;;;;13.60;56.10;;;;;;5273204;28;20093;-28
2022/03/12 04:42:57;;;;;;;;;;;13.70;56.30;;;;;;5272900;28;20266;-29
2022/03/12 04:45:29;;;;;;;;;;;13.70;56.20;;;;;;5272886;28;19927;-29
2022/03/12 04:48:00;;;;;;;;;;;13.70;56.30;;;;;;5273156;28;20372;-29
2022/03/12 04:50:31;;;;;;;;;;;13.70;56.40;;;;;;5255338;28;19927;-29
2022/03/12 04:53:02;;;;;;;;;;;13.70;56.50;;;;;;5272373;28;19927;-29
2022/03/12 04:55:36;;;;;;;;;;;13.70;56.50;;;;;;5273618;28;20404;-30
2022/03/12 04:58:13;;;;;;;;;;;13.60;56.40;;;;;;5271590;28;19921;-32
2022/03/12 05:00:43;;;;;;;;;;;13.60;56.50;;;;;;5255376;28;19959;-29
2022/03/12 05:03:15;;;;;;;;;;;13.60;56.30;;;;;;5272810;28;19927;-29
2022/03/12 05:05:48;;;;;;;;;;;13.60;56.50;;;;;;5254788;28;19945;-30
2022/03/12 05:08:19;;;;;;;;;;;13.60;56.80;;;;;;5254916;28;19920;-29
2022/03/12 05:10:51;;;;;;;;;;;13.60;56.70;;;;;;5237545;28;20369;-29
2022/03/12 05:13:23;;;;;;;;;;;13.60;56.60;;;;;;5254695;28;20436;-29
2022/03/12 05:15:55;;;;;;;;;;;13.60;56.70;;;;;;5237881;28;20403;-28
2022/03/12 05:18:26;;;;;;;;;;;13.60;56.70;;;;;;5254623;28;19927;-29
2022/03/12 05:20:57;;;;;;;;;;;13.70;57.80;;;;;;5272447;28;19920;-30
2022/03/12 05:23:29;;;;;;;;;;;13.60;56.90;;;;;;5254785;28;19920;-32
2022/03/12 05:25:59;;;;;;;;;;;13.60;56.80;;;;;;5271434;28;20410;-32
2022/03/12 05:28:32;;;;;;;;;;;13.60;56.60;;;;;;5272115;28;19924;-31
2022/03/12 05:31:04;;;;;;;;;;;13.60;56.70;;;;;;5237657;28;19943;-28
2022/03/12 05:33:36;;;;;;;;;;;13.60;56.70;;;;;;5254522;28;20006;-29
2022/03/12 05:36:07;;;;;;;;;;;13.60;56.90;;;;;;5254196;28;20023;-29
2022/03/12 05:38:40;;;;;;;;;;;13.60;57.00;;;;;;5271851;28;19920;-27
2022/03/12 05:41:11;;;;;;;;;;;13.60;56.70;;;;;;5271838;28;20330;-29
2022/03/12 05:43:46;;;;;;;;;;;13.60;56.70;;;;;;5272716;28;19920;-29
2022/03/12 05:46:17;;;;;;;;;;;13.60;56.70;;;;;;5271837;28;20018;-31
2022/03/12 05:48:48;;;;;;;;;;;13.60;56.80;;;;;;5254002;28;19920;-29
2022/03/12 05:51:19;;;;;;;;;;;13.60;57.00;;;;;;5271385;28;20014;-32
2022/03/12 05:53:51;;;;;;;;;;;13.60;57.30;;;;;;5272154;28;20423;-29
2022/03/12 05:56:22;;;;;;;;;;;13.60;57.30;;;;;;5271450;28;20277;-28
2022/03/12 05:58:53;;;;;;;;;;;13.60;57.40;;;;;;5271454;28;19924;-30
2022/03/12 06:01:23;;;;;;;;;;;13.60;57.50;;;;;;5271938;28;19931;-29
2022/03/12 06:03:55;;;;;;;;;;;13.60;57.60;;;;;;5271339;28;20354;-32
2022/03/12 06:06:32;;;;;;;;;;;13.60;58.20;;;;;;5253523;28;20384;-31
2022/03/12 06:09:07;;;;;;;;;;;13.60;57.70;;;;;;5271249;28;19932;-32
2022/03/12 06:11:38;;;;;;;;;;;13.60;60.00;;;;;;5253122;28;19969;-29
2022/03/12 06:14:11;;;;;;;;;;;13.60;69.20;;;;;;5271342;28;19920;-32
2022/03/12 06:16:44;;;;;;;;;;;13.80;76.40;;;;;;5259238;28;20289;-28
2022/03/12 06:19:16;;;;;;;;;;;13.80;68.90;;;;;;5268616;28;19969;-29
2022/03/12 06:21:47;;;;;;;;;;;13.90;67.80;;;;;;5269017;28;20652;-29
2022/03/12 06:24:18;;;;;;;;;;;13.90;59.70;;;;;;5268797;28;19923;-28
2022/03/12 06:26:49;;;;;;;;;;;13.90;58.30;;;;;;5268700;28;19945;-29
2022/03/12 06:29:20;;;;;;;;;;;13.90;57.90;;;;;;5268894;28;19920;-30
2022/03/12 06:31:52;;;;;;;;;;;13.90;57.60;;;;;;5268855;28;20369;-30
2022/03/12 06:34:24;;;;;;;;;;;14.00;57.50;;;;;;5268506;28;20651;-30
2022/03/12 06:36:54;;;;;;;;;;;14.00;57.40;;;;;;5274361;28;19926;-29
2022/03/12 06:39:25;;;;;;;;;;;14.00;57.50;;;;;;5275162;28;19947;-29
2022/03/12 06:41:58;;;;;;;;;;;14.00;57.40;;;;;;5253989;28;20359;-32
2022/03/12 06:44:32;;;;;;;;;;;14.00;57.50;;;;;;5281862;28;20448;-32
2022/03/12 06:47:04;;;;;;;;;;;14.00;57.30;;;;;;5268420;28;19927;-33
2022/03/12 06:49:35;;;;;;;;;;;14.00;57.30;;;;;;5268135;28;19962;-29
2022/03/12 06:52:06;;;;;;;;;;;14.00;57.20;;;;;;5267982;28;19931;-29
2022/03/12 06:54:38;;;;;;;;;;;14.00;57.30;;;;;;5268266;28;20398;-32
2022/03/12 06:57:09;;;;;;;;;;;14.00;57.50;;;;;;5268307;28;19920;-29
2022/03/12 06:59:42;;;;;;;;;;;14.00;57.30;;;;;;5272199;28;20372;-32
2022/03/12 07:02:13;;;;;;;;;;;14.00;57.30;;;;;;5286256;28;19919;-29
2022/03/12 07:04:44;;;;;;;;;;;13.90;57.20;;;;;;5284398;28;19961;-33
2022/03/12 07:07:16;;;;;;;;;;;13.90;57.20;;;;;;5269307;28;20205;-29
2022/03/12 07:09:47;;;;;;;;;;;13.90;57.30;;;;;;5268056;28;19966;-28
2022/03/12 07:12:18;;;;;;;;;;;13.90;57.10;;;;;;5270927;28;20377;-29
2022/03/12 07:14:49;;;;;;;;;;;13.90;57.20;;;;;;5277400;28;19965;-28
2022/03/12 07:17:20;;;;;;;;;;;13.90;57.20;;;;;;5270078;28;20386;-32
2022/03/12 07:19:51;;;;;;;;;;;13.90;57.40;;;;;;5286885;28;19924;-32
2022/03/12 07:22:22;;;;;;;;;;;13.90;57.80;;;;;;5283662;28;19931;-29
2022/03/12 07:25:00;;;;;;;;;;;13.90;57.80;;;;;;5251519;28;19932;-29
2022/03/12 07:27:31;;;;;;;;;;;13.90;58.10;;;;;;5263753;28;19924;-30
2022/03/12 07:30:04;;;;;;;;;;;13.90;57.20;;;;;;5239366;28;20020;-29
2022/03/12 07:32:35;;;;;;;;;;;13.90;56.80;;;;;;5265322;28;19932;-31
2022/03/12 07:35:06;;;;;;;;;;;13.10;54.90;;;;;;5269873;28;19993;-29
2022/03/12 07:37:37;;;;;;;;;;;12.00;56.40;;;;;;5269966;28;19982;-31
2022/03/12 07:40:09;;;;;;;27.40;20.00;;;11.30;57.40;;;;;;5270100;28;20400;-28
2022/03/12 07:42:40;;;;;;;;;;;11.00;57.00;;;;;;5269066;28;19926;-30
2022/03/12 07:45:11;;;;;;;;;;;10.80;57.30;;;;;;5269929;28;20349;-28
2022/03/12 07:47:42;;;;;;;25.17;17.43;;;11.00;56.90;;;;;;5269408;28;19967;-27
2022/03/12 07:50:14;;;;;;;24.97;15.47;;;11.10;57.30;;;;;;5254821;28;20043;-30
2022/03/12 07:52:45;;;;;;;25.13;17.07;;;11.20;56.30;;;;;;5272610;28;20090;-31
2022/03/12 07:55:17;;;;;;;21.80;15.10;;;11.20;57.50;;;;;;5238905;28;20048;-28
2022/03/12 07:57:47;;;;;;;18.63;12.77;;;11.20;58.10;;;;;;5273575;28;20115;-28
2022/03/12 08:00:19;;;;;;;20.73;13.60;;;11.10;57.20;;;;;;5273258;28;20497;-29
2022/03/12 08:02:50;;;;;;;15.10;10.23;;;11.00;56.90;;;;;;5273321;28;20139;-29
2022/03/12 08:05:23;;;;;;;15.40;10.67;;;10.90;54.80;;;;;;5255413;28;20537;-31
2022/03/12 08:07:54;;;;;;;16.02;11.23;;;10.70;55.50;;;;;;5273299;28;20040;-29
2022/03/12 08:10:28;;;;;;;16.17;11.33;;;10.70;56.50;;;;;;5273098;28;20094;-30
2022/03/12 08:12:59;;;;;;;17.03;11.33;;;10.90;56.40;;;;;;5273700;28;20553;-31
2022/03/12 08:15:33;;;;;;;16.17;9.52;;;11.00;56.10;;;;;;5273253;28;20119;-32
2022/03/12 08:18:05;;;;;;;15.57;10.40;;;11.10;56.40;;;;;;5272855;28;20052;-31
2022/03/12 08:20:36;;;;;;;16.27;11.13;;;11.20;55.80;;;;;;5273330;28;20047;-29
2022/03/12 08:23:08;;;;;;;16.27;11.20;;;11.30;55.80;;;;;;5272166;28;20165;-31
2022/03/12 08:25:39;;;;;;;21.33;15.03;;;11.40;56.10;;;;;;5272821;28;20040;-31
2022/03/12 08:28:11;;;;;;;18.00;13.40;;;11.50;55.50;;;;;;5273697;28;20381;-31
2022/03/12 08:30:42;;;;;;;15.53;10.47;;;11.50;55.70;;;;;;5272930;28;20457;-29
2022/03/12 08:33:13;;;;;;;17.47;11.33;;;11.40;55.60;;;;;;5204139;28;20056;-30
2022/03/12 08:35:45;;;;;;;16.03;11.13;;;11.30;55.80;;;;;;5273068;28;20040;-28
2022/03/12 08:38:19;;;;;;;18.73;12.43;;;11.30;56.10;;;;;;5272635;28;20087;-31
2022/03/12 08:40:51;;;;;;;17.03;11.77;;;11.20;55.60;;;;;;5238514;28;20036;-31
2022/03/12 08:43:22;;;;;;;17.93;12.60;;;11.10;55.20;;;;;;5254868;28;20085;-30
2022/03/12 08:45:54;;;;;;;19.53;13.80;;;11.10;56.30;;;;;;5272254;28;20102;-27
2022/03/12 08:48:24;;;;;;;18.47;12.00;;;11.00;56.20;;;;;;5254408;28;20135;-28
2022/03/12 08:50:57;;;;;;;23.70;16.77;;;10.80;56.30;;;;;;5272360;28;20055;-30
2022/03/12 08:53:28;;;;;;;22.75;15.85;;;10.70;56.60;;;;;;5254046;28;20140;-29
2022/03/12 08:56:00;;;;;;;19.40;12.97;;;10.60;57.10;;;;;;5272176;28;20048;-28
2022/03/12 08:58:39;;;;;;;21.40;15.37;;;10.40;56.70;;;;;;5272825;28;20050;-31
2022/03/12 09:01:10;;;;;;;17.07;12.63;;;10.30;57.00;;;;;;5270762;28;20070;-30
2022/03/12 09:03:41;;;;;;;18.23;12.60;;;10.20;56.50;;;;;;5271824;28;20048;-30
2022/03/12 09:06:12;;;;;;;;;;;10.60;56.20;;;;;;5271994;28;20068;-29
2022/03/12 09:08:46;;;;;;;17.10;12.07;;;11.00;56.00;;;;;;5270825;28;20040;-30
2022/03/12 09:11:19;;;;;;;17.80;12.73;;;11.30;56.00;;;;;;5271824;28;20055;-29
2022/03/12 09:13:50;;;;;;;19.00;12.40;;;11.70;55.80;;;;;;5272128;28;20056;-32
2022/03/12 09:16:22;;;;;;;;;;;11.90;56.10;;;;;;5254543;28;20499;-31
2022/03/12 09:18:53;;;;;;;;;;;12.10;56.00;;;;;;5272653;28;20284;-27
2022/03/12 09:21:26;;;;;;;18.10;12.93;;;12.30;55.90;;;;;;5272053;28;19920;-32
2022/03/12 09:23:57;;;;;;;19.00;13.18;;;12.50;55.80;;;;;;5254253;28;20401;-30
2022/03/12 09:26:28;;;;;;;;;;;12.60;55.70;;;;;;5271943;28;20047;-31
2022/03/12 09:28:59;;;;;;;;;;;12.70;55.70;;;;;;5272504;28;19920;-30
2022/03/12 09:31:30;;;;;;;;;;;12.80;55.30;;;;;;5254347;28;19927;-31
2022/03/12 09:34:02;;;;;;;;;;;13.00;55.10;;;;;;5272465;28;19927;-32
2022/03/12 09:36:35;;;;;;;;;;;13.00;55.10;;;;;;5272101;28;20376;-28
2022/03/12 09:39:06;;;;;;;;;;;13.10;54.70;;;;;;5272034;28;19920;-31
2022/03/12 09:41:38;;;;;;;;;;;13.20;54.70;;;;;;5271836;28;19927;-31
2022/03/12 09:44:09;;;;;;;;;;;13.20;54.50;;;;;;5272103;28;19953;-33
2022/03/12 09:46:40;;;;;;;;;;;13.30;54.40;;;;;;5253568;28;19920;-29
2022/03/12 09:49:14;;;;;;;;;;;13.40;54.30;;;;;;5272171;28;19924;-33
2022/03/12 09:51:45;;;;;;;;;;;13.40;53.90;;;;;;5271511;28;20057;-29
2022/03/12 09:54:18;;;;;;;;;;;13.40;54.10;;;;;;5272049;28;20010;-29
2022/03/12 09:56:49;;;;;;;;;;;13.50;53.80;;;;;;5253353;28;19920;-31
2022/03/12 09:59:19;;;;;;;;;;;13.50;53.70;;;;;;5272179;28;19920;-33
2022/03/12 10:01:51;;;;;;;;;;;13.50;53.50;;;;;;5253658;28;20288;-30
2022/03/12 10:04:22;;;;;;;;;;;13.60;53.50;;;;;;5271613;28;19927;-29
2022/03/12 10:06:53;;;;;;;;;;;13.60;53.60;;;;;;5253469;28;20386;-29
2022/03/12 10:09:24;;;;;;;;;;;13.60;53.60;;;;;;5271568;28;20023;-29
2022/03/12 10:11:55;;;;;;;;;;;13.60;53.70;;;;;;5270816;28;20384;-29
2022/03/12 10:14:26;;;;;;;;;;;13.70;53.60;;;;;;5271555;28;19951;-31
2022/03/12 10:17:00;;;;;;;;;;;13.70;54.40;;;;;;5271359;28;19920;-28
2022/03/12 10:19:31;;;;;;;;;;;13.70;54.50;;;;;;5253580;28;19923;-29
2022/03/12 10:22:03;;;;;;;;;;;13.70;56.90;;;;;;5271198;28;19919;-29
2022/03/12 10:24:34;;;;;;;;;;;13.80;57.40;;;;;;5253344;28;19973;-29
2022/03/12 10:27:08;;;;;;;;;;;13.80;58.60;;;;;;5271058;28;19924;-29
2022/03/12 10:29:38;;;;;;;;;;;13.90;58.90;;;;;;5271064;28;20015;-31
2022/03/12 10:32:25;;;;;;;;;;;13.90;57.60;;;;;;5271033;28;19924;-29
2022/03/12 10:34:56;;;;;;;;;;;13.90;58.50;;;;;;5270914;28;20280;-32
2022/03/12 10:37:30;;;;;;;;;;;13.90;60.90;;;;;;5271053;28;20273;-29
2022/03/12 10:40:03;;;;;;;;;;;13.90;62.90;;;;;;5270842;28;19943;-29
2022/03/12 10:42:35;;;;;;;;;;;14.00;70.50;;;;;;5270812;28;20377;-29
2022/03/12 10:45:07;;;;;;;;;;;14.00;60.50;;;;;;5270726;28;19920;-32
2022/03/12 10:47:39;;;;;;;;;;;14.00;61.50;;;;;;5270337;28;19920;-30
2022/03/12 10:50:15;;;;;;;;;;;14.00;60.90;;;;;;5270656;28;19920;-30
2022/03/12 10:52:49;;;;;;;;;;;14.00;60.50;;;;;;5270346;28;19919;-28
2022/03/12 10:55:24;;;;;;;;;;;14.00;58.40;;;;;;5270608;28;19920;-31
2022/03/12 10:57:56;;;;;;;;;;;14.10;64.60;;;;;;5270547;28;20369;-30
2022/03/12 11:00:28;;;;;;;;;;;14.00;60.10;;;;;;5270342;28;19927;-30
2022/03/12 11:03:00;;;;;;;;;;;14.00;59.00;;;;;;5252314;28;19954;-29
2022/03/12 11:05:34;;;;;;;;;;;14.00;61.50;;;;;;5270466;28;19920;-32
2022/03/12 11:08:06;;;;;;;;;;;14.10;58.80;;;;;;5253369;28;19920;-30
2022/03/12 11:10:42;;;;;;;;;;;14.00;58.10;;;;;;5270407;28;19927;-29
2022/03/12 11:13:24;;;;;;;;;;;14.00;61.10;;;;;;5270119;28;19924;-29
2022/03/12 11:16:04;;;;;;;;;;;14.00;58.70;;;;;;5269955;28;19973;-29
2022/03/12 11:18:35;;;;;;;;;;;14.00;58.70;;;;;;5270151;28;19927;-29
2022/03/12 11:21:06;;;;;;;;;;;14.00;61.00;;;;;;5270235;28;20365;-29
2022/03/12 11:23:37;;;;;;;9.03;6.27;;;14.00;59.80;;;;;;5269046;28;19999;-29
2022/03/12 11:26:08;;;;;;;9.70;7.47;;;14.10;56.50;;;;;;5269569;28;20123;-29
2022/03/12 11:28:39;;;;;;;8.30;6.33;;;14.00;52.50;;;;;;5269912;28;20101;-29
2022/03/12 11:31:14;;;;;;;10.93;6.80;;;14.00;52.40;;;;;;5234787;28;20477;-29
2022/03/12 11:33:45;;;;;;;10.43;6.57;;;14.00;51.60;;;;;;5235380;28;20098;-29
2022/03/12 11:36:16;;;;;;;11.07;7.87;;;14.00;51.20;;;;;;5251754;28;20044;-29
2022/03/12 11:38:50;;;;;;;12.23;7.33;;;13.90;50.70;;;;;;5269474;28;20500;-29
2022/03/12 11:41:23;;;;;;;12.70;9.67;;;13.90;50.30;;;;;;5235095;28;20481;-29
2022/03/12 11:43:55;;;;;;;14.63;12.27;;;13.90;50.50;;;;;;5252054;28;20489;-32
2022/03/12 11:46:25;;;;;;;12.67;9.50;;;13.90;51.00;;;;;;5251136;28;20072;-29
2022/03/12 11:48:57;;;;;;;11.90;8.60;;;13.90;50.20;;;;;;5269268;28;20044;-29
2022/03/12 11:51:29;;;;;;;11.53;8.37;;;13.90;50.10;;;;;;5269080;28;20036;-29
2022/03/12 11:54:00;;;;;;;11.00;8.13;;;13.90;49.80;;;;;;5269200;28;20131;-29
2022/03/12 11:56:34;;;;;;;12.67;8.17;;;13.90;49.70;;;;;;5269721;28;20132;-29
2022/03/12 11:59:06;;;;;;;12.60;9.50;;;13.90;49.80;;;;;;5269460;28;20040;-29
2022/03/12 12:01:37;;;;;;;12.33;9.37;;;13.90;51.90;;;;;;5251273;28;20370;-29
2022/03/12 12:04:09;;;;;;;9.80;7.93;;;13.90;50.60;;;;;;5269051;28;20040;-33
2022/03/12 12:06:50;;;;;;;;;;;13.90;50.10;;;;;;5269342;28;20063;-29
2022/03/12 12:09:25;;;;;;;;;;;13.90;50.20;;;;;;5252680;28;20246;-29
2022/03/12 12:11:56;;;;;;;;;;;13.90;49.70;;;;;;5269531;28;19920;-29
2022/03/12 12:14:28;;;;;;;;;;;13.90;49.40;;;;;;5252129;28;19963;-29
2022/03/12 12:17:01;;;;;;;;;;;13.90;49.40;;;;;;5269594;28;20011;-30
2022/03/12 12:19:34;;;;;;;;;;;13.90;49.20;;;;;;5269709;28;20289;-29
2022/03/12 12:22:07;;;;;;;;;;;13.90;49.10;;;;;;5269688;28;20360;-30
2022/03/12 12:24:47;;;;;;;;;;;13.90;49.30;;;;;;5269641;28;20376;-29
2022/03/12 12:27:23;;;;;;;;;;;13.90;49.10;;;;;;5269366;28;19920;-29
2022/03/12 12:29:54;;;;;;;;;;;13.90;49.00;;;;;;5252464;28;19924;-29
2022/03/12 12:32:25;;;;;;;;;;;13.90;48.80;;;;;;5251545;28;19920;-30
2022/03/12 12:35:02;;;;;;;;;;;13.90;48.50;;;;;;5270147;28;19920;-31
2022/03/12 12:37:42;;;;;;;;;;;13.90;48.80;;;;;;5273212;28;20007;-31
2022/03/12 12:40:27;;;;;;;;;;;13.90;48.50;;;;;;5273318;28;19924;-29
2022/03/12 12:43:02;;;;;;;;;;;13.90;48.60;;;;;;5272206;28;20010;-29
2022/03/12 12:45:36;;;;;;;;;;;13.90;48.90;;;;;;5273154;28;20007;-29
2022/03/12 12:48:10;;;;;;;;;;;13.90;48.90;;;;;;5255456;28;19924;-29
2022/03/12 12:50:59;;;;;;;;;;;13.90;49.30;;;;;;5273119;28;19920;-29
2022/03/12 12:53:30;;;;;;;;;;;13.90;49.00;;;;;;5272764;28;19963;-33
2022/03/12 12:56:20;;;;;;;;;;;13.90;49.60;;;;;;5273177;28;19920;-32
2022/03/12 12:58:51;;;;;;;;;;;13.90;50.50;;;;;;5272977;28;20317;-30
2022/03/12 13:01:23;;;;;;;;;;;13.90;49.00;;;;;;5272920;28;20358;-33
2022/03/12 13:03:54;;;;;;;;;;;13.90;48.80;;;;;;5272878;28;20378;-29
2022/03/12 13:06:58;;;;;;;;;;;13.90;48.90;;;;;;5254739;28;20345;-29
2022/03/12 13:09:31;;;;;;;;;;;13.90;49.60;;;;;;5228743;28;19927;-29
2022/03/12 13:12:03;;;;;;;;;;;13.90;50.70;;;;;;5228745;28;19928;-30
2022/03/12 13:14:48;;;;;;;;;;;13.90;50.60;;;;;;5228642;28;20008;-29
2022/03/12 13:17:30;;;;;;;;;;;13.90;49.90;;;;;;5228689;28;19927;-29
2022/03/12 13:20:01;;;;;;;;;;;13.90;49.40;;;;;;5228915;28;19921;-29
2022/03/12 13:22:42;;;;;;;;;;;13.90;49.70;;;;;;5179095;28;19986;-29
2022/03/12 13:25:13;;;;;;;;;;;13.90;50.10;;;;;;5228615;28;19921;-31
2022/03/12 13:27:48;;;;;;;;;;;13.90;49.80;;;;;;5228653;28;19951;-30
2022/03/12 13:30:19;;;;;;;;;;;13.80;49.70;;;;;;5228422;28;20091;-28
2022/03/12 13:32:50;;;;;;;;;;;13.90;50.00;;;;;;5228440;28;19927;-30
2022/03/12 13:35:25;;;;;;;;;;;13.90;51.40;;;;;;5228363;28;20270;-29
2022/03/12 13:37:58;;;;;;;;;;;13.90;51.80;;;;;;5228215;28;20007;-29
2022/03/12 13:40:29;;;;;;;;;;;13.90;50.90;;;;;;5228103;28;19939;-30
2022/03/12 13:43:00;;;;;;;;;;;13.90;51.10;;;;;;5228289;28;19921;-29
2022/03/12 13:45:33;;;;;;;;;;;13.90;50.90;;;;;;5258673;28;19965;-32
2022/03/12 13:48:04;;;;;;;;;;;13.90;50.90;;;;;;5271351;28;20430;-29
2022/03/12 13:50:35;;;;;;;;;;;13.90;51.30;;;;;;5271930;28;19920;-29
2022/03/12 13:53:07;;;;;;;;;;;13.90;51.60;;;;;;5271949;28;19974;-31
2022/03/12 13:55:38;;;;;;;;;;;13.90;51.90;;;;;;5271559;28;19919;-31
2022/03/12 13:58:09;;;;;;;;;;;13.90;53.20;;;;;;5253748;28;20420;-30
2022/03/12 14:00:43;;;;;;;;;;;13.90;53.10;;;;;;5271801;28;20014;-29
2022/03/12 14:03:14;;;;;;;;;;;13.90;53.10;;;;;;5271577;28;19956;-29
2022/03/12 14:05:45;;;;;;;;;;;13.90;53.00;;;;;;5271254;28;19955;-31
2022/03/12 14:08:19;;;;;;;;;;;13.90;53.10;;;;;;5237789;28;19927;-29
2022/03/12 14:10:50;;;;;;;;;;;13.90;53.20;;;;;;5271543;28;19927;-29
2022/03/12 14:13:21;;;;;;;;;;;13.90;53.20;;;;;;5271470;28;20361;-30
2022/03/12 14:15:52;;;;;;;;;;;13.90;52.90;;;;;;5271664;28;19977;-32
2022/03/12 14:18:24;;;;;;;;;;;13.90;52.80;;;;;;5271358;28;19943;-30
2022/03/12 14:20:58;;;;;;;;;;;13.90;52.80;;;;;;5271269;28;20288;-31
2022/03/12 14:23:29;;;;;;;;;;;13.90;53.30;;;;;;5271184;28;20380;-29
2022/03/12 14:26:00;;;;;;;;;;;13.90;53.50;;;;;;5271086;28;20299;-29
2022/03/12 14:28:31;;;;;;;;;;;13.90;53.10;;;;;;5271085;28;19942;-29